createdAt,value
2022-09-04T00:03:05.918Z,8.90
2022-09-04T00:09:23.008Z,18.17
2022-09-04T00:15:35.280Z,10.20
2022-09-04T00:21:45.467Z,11.03
2022-09-04T00:27:53.049Z,8.23
2022-09-04T00:34:13.048Z,7.28
2022-09-04T00:40:31.167Z,10.27
2022-09-04T00:46:45.084Z,7.57
2022-09-04T00:53:33.132Z,4.93
2022-09-04T00:59:44.274Z,7.30
2022-09-04T01:06:04.587Z,11.25
2022-09-04T01:12:23.406Z,4.78
2022-09-04T01:18:35.579Z,10.32
2022-09-04T01:25:03.374Z,5.37
2022-09-04T01:31:14.708Z,8.82
2022-09-04T01:37:44.650Z,6.93
2022-09-04T01:43:47.146Z,5.43
2022-09-04T01:56:21.432Z,8.00
2022-09-04T02:02:44.830Z,6.13
2022-09-04T02:09:01.471Z,4.88
2022-09-04T02:15:29.990Z,8.60
2022-09-04T02:21:37.868Z,5.75
2022-09-04T02:28:19.036Z,6.53
2022-09-04T02:34:27.288Z,7.97
2022-09-04T02:40:38.826Z,3.70
2022-09-04T02:46:51.599Z,8.45
2022-09-04T02:53:03.485Z,3.40
2022-09-04T02:59:21.946Z,6.40
2022-09-04T03:05:42.639Z,8.20
2022-09-04T03:11:48.366Z,4.85
2022-09-04T03:18:17.145Z,10.63
2022-09-04T03:24:22.357Z,12.45
2022-09-04T03:30:25.854Z,5.85
2022-09-04T03:36:44.216Z,9.30
2022-09-04T03:43:11.353Z,6.25
2022-09-04T03:49:43.090Z,5.00
2022-09-04T03:55:45.472Z,9.63
2022-09-04T04:01:50.470Z,5.68
2022-09-04T04:08:22.928Z,8.57
2022-09-04T04:15:12.752Z,4.60
2022-09-04T04:21:56.685Z,6.80
2022-09-04T04:28:39.742Z,13.65
2022-09-04T04:35:10.858Z,5.57
2022-09-04T04:41:58.957Z,8.80
2022-09-04T04:48:25.495Z,7.00
2022-09-04T04:54:44.488Z,5.32
2022-09-04T05:01:06.571Z,7.25
2022-09-04T05:07:36.549Z,5.78
2022-09-04T05:14:01.247Z,6.35
2022-09-04T05:20:20.997Z,6.32
2022-09-04T05:26:51.345Z,5.20
2022-09-04T05:33:06.439Z,8.45
2022-09-04T05:39:28.574Z,7.25
2022-09-04T05:46:04.759Z,5.72
2022-09-04T05:52:18.951Z,7.10
2022-09-04T05:58:30.004Z,10.63
2022-09-04T06:05:10.510Z,7.40
2022-09-04T06:11:21.966Z,5.90
2022-09-04T06:17:35.792Z,7.80
2022-09-04T06:23:51.510Z,9.25
2022-09-04T06:30:10.767Z,7.35
2022-09-04T06:36:24.002Z,7.65
2022-09-04T06:42:35.661Z,5.50
2022-09-04T06:48:44.703Z,11.45
2022-09-04T06:54:56.578Z,9.43
2022-09-04T07:01:09.261Z,9.75
2022-09-04T07:07:46.810Z,6.20
2022-09-04T07:14:25.386Z,6.70
2022-09-04T07:20:58.971Z,5.00
2022-09-04T07:27:25.881Z,6.82
2022-09-04T07:34:08.526Z,6.22
2022-09-04T07:40:21.625Z,6.05
2022-09-04T07:47:02.506Z,8.15
2022-09-04T07:53:15.047Z,8.10
2022-09-04T07:59:24.594Z,12.20
2022-09-04T08:05:49.745Z,8.93
2022-09-04T08:12:12.138Z,12.65
2022-09-04T08:18:37.339Z,9.90
2022-09-04T08:25:22.415Z,17.42
2022-09-04T08:31:30.766Z,9.00
2022-09-04T08:37:53.257Z,6.35
2022-09-04T08:44:27.403Z,18.40
2022-09-04T08:51:00.640Z,6.28
2022-09-04T08:57:21.454Z,6.90
2022-09-04T09:03:51.551Z,12.50
2022-09-04T09:10:38.011Z,7.18
2022-09-04T09:16:44.321Z,6.43
2022-09-04T09:23:05.218Z,7.57
2022-09-04T09:29:42.146Z,9.68
2022-09-04T09:36:16.894Z,16.83
2022-09-04T09:42:31.883Z,9.00
2022-09-04T09:48:49.728Z,7.78
2022-09-04T09:55:10.518Z,11.02
2022-09-04T10:01:25.201Z,11.32
2022-09-04T10:07:35.083Z,7.38
2022-09-04T10:13:55.331Z,12.57
2022-09-04T10:20:36.561Z,6.90
2022-09-04T10:27:16.721Z,8.57
2022-09-04T10:33:37.603Z,5.63
2022-09-04T10:40:17.538Z,5.55
2022-09-04T10:46:32.570Z,6.38
2022-09-04T10:52:48.725Z,11.68
2022-09-04T10:59:25.980Z,24.05
2022-09-04T11:06:16.407Z,14.50
2022-09-04T11:13:07.175Z,10.00
2022-09-04T11:19:46.437Z,22.10
2022-09-04T11:25:48.704Z,6.57
2022-09-04T11:32:28.075Z,5.18
2022-09-04T11:38:45.413Z,11.15
2022-09-04T11:45:09.456Z,7.63
2022-09-04T11:51:40.375Z,9.35
2022-09-04T11:58:10.134Z,6.47
2022-09-04T12:04:49.598Z,7.60
2022-09-04T12:11:10.634Z,5.93
2022-09-04T12:17:48.597Z,10.18
2022-09-04T12:24:15.240Z,9.35
2022-09-04T12:30:25.951Z,5.22
2022-09-04T12:37:06.947Z,8.02
2022-09-04T12:43:33.664Z,7.32
2022-09-04T12:49:53.915Z,6.35
2022-09-04T12:56:06.259Z,5.60
2022-09-04T13:02:20.686Z,4.40
2022-09-04T13:08:54.488Z,6.88
2022-09-04T13:15:08.032Z,4.50
2022-09-04T13:21:38.497Z,4.50
2022-09-04T13:27:41.124Z,6.65
2022-09-04T13:34:18.778Z,5.28
2022-09-04T13:40:55.294Z,5.75
2022-09-04T13:47:15.470Z,5.65
2022-09-04T13:53:26.237Z,4.63
2022-09-04T13:59:29.567Z,5.25
2022-09-04T14:05:34.791Z,7.32
2022-09-04T14:11:37.532Z,4.95
2022-09-04T14:18:24.490Z,3.90
2022-09-04T14:25:06.682Z,7.43
2022-09-04T14:31:16.616Z,6.85
2022-09-04T14:37:40.821Z,4.65
2022-09-04T14:43:59.816Z,10.68
2022-09-04T14:50:02.287Z,4.35
2022-09-04T14:56:10.550Z,5.00
2022-09-04T15:02:20.269Z,5.60
2022-09-04T15:08:39.952Z,6.53
2022-09-04T15:14:46.802Z,6.75
2022-09-04T15:21:02.275Z,5.65
2022-09-04T15:27:40.976Z,5.15
2022-09-04T15:33:45.186Z,4.95
2022-09-04T15:40:12.337Z,8.85
2022-09-04T15:46:24.225Z,4.88
2022-09-04T15:52:52.788Z,10.38
2022-09-04T15:59:16.160Z,5.13
2022-09-04T16:05:25.294Z,9.45
2022-09-04T16:11:47.270Z,9.02
2022-09-04T16:17:55.901Z,6.60
2022-09-04T16:24:00.212Z,13.18
2022-09-04T16:30:05.700Z,6.93
2022-09-04T16:36:24.426Z,16.20
2022-09-04T16:42:41.379Z,33.45
2022-09-04T16:48:58.248Z,7.22
2022-09-04T16:55:25.189Z,9.75
2022-09-04T17:01:38.908Z,13.13
2022-09-04T17:07:47.492Z,11.23
2022-09-04T17:13:58.726Z,6.68
2022-09-04T17:20:20.017Z,13.73
2022-09-04T17:29:13.160Z,10.07
2022-09-04T17:37:42.034Z,5.78
2022-09-04T17:40:40.274Z,6.65
2022-09-04T17:52:07.425Z,15.38
2022-09-04T17:58:40.374Z,7.30
2022-09-04T18:05:10.869Z,6.43
2022-09-04T18:11:24.635Z,14.70
2022-09-04T18:17:35.989Z,17.98
2022-09-04T18:23:51.423Z,8.32
2022-09-04T18:34:50.200Z,10.52
2022-09-04T18:37:19.827Z,9.20
2022-09-04T18:50:23.119Z,9.43
2022-09-04T18:50:48.100Z,11.57
2022-09-04T18:56:20.904Z,7.80
2022-09-04T19:02:29.960Z,9.23
2022-09-04T19:08:38.089Z,9.63
2022-09-04T19:14:43.468Z,12.85
2022-09-04T19:20:54.049Z,17.08
2022-09-04T19:26:58.099Z,18.60
2022-09-04T19:33:33.710Z,11.75
2022-09-04T19:45:55.351Z,11.88
2022-09-04T19:46:27.874Z,7.65
2022-09-04T19:53:30.005Z,13.43
2022-09-04T19:59:12.225Z,8.20
2022-09-04T20:05:30.054Z,9.38
2022-09-04T20:11:39.719Z,13.73
2022-09-04T20:18:11.977Z,15.43
2022-09-04T20:24:25.277Z,9.85
2022-09-04T20:30:30.112Z,14.43
2022-09-04T20:36:37.426Z,10.73
2022-09-04T20:43:18.047Z,10.73
2022-09-04T20:53:06.250Z,13.55
2022-09-04T20:59:23.657Z,11.27
2022-09-04T21:03:29.033Z,19.15
2022-09-04T21:09:37.455Z,13.68
2022-09-04T21:16:05.911Z,12.88
2022-09-04T21:22:32.560Z,16.23
2022-09-04T21:28:36.113Z,23.80
2022-09-04T21:35:24.959Z,23.25
2022-09-04T21:41:51.070Z,15.20
2022-09-04T21:47:59.377Z,24.77
2022-09-04T21:54:18.458Z,18.10
2022-09-04T22:02:44.442Z,22.13
2022-09-04T22:12:13.089Z,21.42
2022-09-04T22:14:15.872Z,18.30
2022-09-04T22:20:45.857Z,20.33
2022-09-04T22:27:12.644Z,22.88
2022-09-04T22:33:14.695Z,18.85
2022-09-04T22:39:44.578Z,19.58
2022-09-04T22:46:16.868Z,19.02
2022-09-04T22:53:05.495Z,22.27
2022-09-04T22:59:26.277Z,17.00
2022-09-04T23:05:37.634Z,28.85
2022-09-04T23:13:51.185Z,22.00
2022-09-04T23:21:10.590Z,21.52
2022-09-04T23:26:51.087Z,25.73
2022-09-04T23:32:22.466Z,42.60
2022-09-04T23:38:28.954Z,26.63
2022-09-04T23:45:03.253Z,25.67
2022-09-04T23:51:17.689Z,28.85
2022-09-04T23:57:29.423Z,28.58
